sensor_id;sensor_type;location;lat;lon;timestamp;P1;durP1;ratioP1;P2;durP2;ratioP2
11927;SDS011;6023;47.070;15.126;2022-12-18T00:00:06;14.77;;;9.67;;
11927;SDS011;6023;47.070;15.126;2022-12-18T00:02:37;12.97;;;9.43;;
11927;SDS011;6023;47.070;15.126;2022-12-18T00:05:06;12.80;;;7.80;;
11927;SDS011;6023;47.070;15.126;2022-12-18T00:07:35;9.53;;;7.10;;
11927;SDS011;6023;47.070;15.126;2022-12-18T00:10:05;10.40;;;7.00;;
11927;SDS011;6023;47.070;15.126;2022-12-18T00:12:34;12.83;;;8.10;;
11927;SDS011;6023;47.070;15.126;2022-12-18T00:15:03;11.93;;;7.93;;
11927;SDS011;6023;47.070;15.126;2022-12-18T00:17:32;11.10;;;7.20;;
11927;SDS011;6023;47.070;15.126;2022-12-18T00:20:02;9.77;;;6.73;;
11927;SDS011;6023;47.070;15.126;2022-12-18T00:22:31;9.03;;;6.20;;
11927;SDS011;6023;47.070;15.126;2022-12-18T00:24:59;8.23;;;6.00;;
11927;SDS011;6023;47.070;15.126;2022-12-18T00:27:28;8.57;;;5.70;;
11927;SDS011;6023;47.070;15.126;2022-12-18T00:29:56;8.70;;;5.70;;
11927;SDS011;6023;47.070;15.126;2022-12-18T00:32:25;7.17;;;5.33;;
11927;SDS011;6023;47.070;15.126;2022-12-18T00:34:53;8.20;;;5.60;;
11927;SDS011;6023;47.070;15.126;2022-12-18T00:37:23;8.20;;;5.50;;
11927;SDS011;6023;47.070;15.126;2022-12-18T00:39:52;8.17;;;5.27;;
11927;SDS011;6023;47.070;15.126;2022-12-18T00:42:20;9.07;;;5.70;;
11927;SDS011;6023;47.070;15.126;2022-12-18T00:45:06;8.70;;;5.10;;
11927;SDS011;6023;47.070;15.126;2022-12-18T00:47:38;7.27;;;5.57;;
11927;SDS011;6023;47.070;15.126;2022-12-18T00:50:08;7.47;;;5.00;;
11927;SDS011;6023;47.070;15.126;2022-12-18T00:52:38;7.47;;;5.10;;
11927;SDS011;6023;47.070;15.126;2022-12-18T00:55:10;9.40;;;6.33;;
11927;SDS011;6023;47.070;15.126;2022-12-18T00:57:38;14.90;;;9.40;;
11927;SDS011;6023;47.070;15.126;2022-12-18T01:00:08;19.77;;;12.03;;
11927;SDS011;6023;47.070;15.126;2022-12-18T01:02:39;60.23;;;35.10;;
11927;SDS011;6023;47.070;15.126;2022-12-18T01:05:08;35.23;;;21.93;;
11927;SDS011;6023;47.070;15.126;2022-12-18T01:07:39;42.97;;;26.57;;
11927;SDS011;6023;47.070;15.126;2022-12-18T01:10:08;45.30;;;29.90;;
11927;SDS011;6023;47.070;15.126;2022-12-18T01:12:38;35.47;;;21.90;;
11927;SDS011;6023;47.070;15.126;2022-12-18T01:15:07;22.00;;;13.40;;
11927;SDS011;6023;47.070;15.126;2022-12-18T01:17:37;14.00;;;8.77;;
11927;SDS011;6023;47.070;15.126;2022-12-18T01:20:06;11.57;;;7.07;;
11927;SDS011;6023;47.070;15.126;2022-12-18T01:22:36;11.77;;;6.73;;
11927;SDS011;6023;47.070;15.126;2022-12-18T01:25:06;10.70;;;6.43;;
11927;SDS011;6023;47.070;15.126;2022-12-18T01:27:35;10.43;;;6.70;;
11927;SDS011;6023;47.070;15.126;2022-12-18T01:30:04;10.87;;;6.50;;
11927;SDS011;6023;47.070;15.126;2022-12-18T01:32:33;9.93;;;6.07;;
11927;SDS011;6023;47.070;15.126;2022-12-18T01:35:02;9.13;;;5.63;;
11927;SDS011;6023;47.070;15.126;2022-12-18T01:37:32;8.03;;;5.20;;
11927;SDS011;6023;47.070;15.126;2022-12-18T01:40:00;7.73;;;5.37;;
11927;SDS011;6023;47.070;15.126;2022-12-18T01:42:30;8.10;;;5.50;;
11927;SDS011;6023;47.070;15.126;2022-12-18T01:45:01;7.80;;;5.20;;
11927;SDS011;6023;47.070;15.126;2022-12-18T01:47:35;8.27;;;5.10;;
11927;SDS011;6023;47.070;15.126;2022-12-18T01:50:07;8.70;;;5.53;;
11927;SDS011;6023;47.070;15.126;2022-12-18T01:52:37;9.77;;;5.70;;
11927;SDS011;6023;47.070;15.126;2022-12-18T01:55:09;8.67;;;5.00;;
11927;SDS011;6023;47.070;15.126;2022-12-18T01:57:39;8.97;;;4.97;;
11927;SDS011;6023;47.070;15.126;2022-12-18T02:00:09;7.20;;;4.60;;
11927;SDS011;6023;47.070;15.126;2022-12-18T02:02:40;8.23;;;4.90;;
11927;SDS011;6023;47.070;15.126;2022-12-18T02:05:10;6.97;;;4.50;;
11927;SDS011;6023;47.070;15.126;2022-12-18T02:07:42;9.73;;;5.13;;
11927;SDS011;6023;47.070;15.126;2022-12-18T02:10:14;7.83;;;5.13;;
11927;SDS011;6023;47.070;15.126;2022-12-18T02:12:48;8.23;;;5.50;;
11927;SDS011;6023;47.070;15.126;2022-12-18T02:15:23;9.77;;;5.23;;
11927;SDS011;6023;47.070;15.126;2022-12-18T02:17:54;9.07;;;5.37;;
11927;SDS011;6023;47.070;15.126;2022-12-18T02:20:26;8.90;;;5.10;;
11927;SDS011;6023;47.070;15.126;2022-12-18T02:23:01;7.93;;;5.03;;
11927;SDS011;6023;47.070;15.126;2022-12-18T02:25:41;8.37;;;5.27;;
11927;SDS011;6023;47.070;15.126;2022-12-18T02:28:34;8.77;;;5.30;;
11927;SDS011;6023;47.070;15.126;2022-12-18T02:31:07;9.77;;;5.43;;
11927;SDS011;6023;47.070;15.126;2022-12-18T02:33:39;10.47;;;5.70;;
11927;SDS011;6023;47.070;15.126;2022-12-18T02:36:08;8.83;;;5.07;;
11927;SDS011;6023;47.070;15.126;2022-12-18T02:38:37;7.40;;;5.00;;
11927;SDS011;6023;47.070;15.126;2022-12-18T02:41:08;7.73;;;5.07;;
11927;SDS011;6023;47.070;15.126;2022-12-18T02:43:36;7.27;;;4.70;;
11927;SDS011;6023;47.070;15.126;2022-12-18T02:46:20;8.67;;;5.10;;
11927;SDS011;6023;47.070;15.126;2022-12-18T02:48:53;9.77;;;5.60;;
11927;SDS011;6023;47.070;15.126;2022-12-18T02:51:28;7.67;;;4.87;;
11927;SDS011;6023;47.070;15.126;2022-12-18T02:53:58;9.73;;;5.20;;
11927;SDS011;6023;47.070;15.126;2022-12-18T02:56:33;9.90;;;5.27;;
11927;SDS011;6023;47.070;15.126;2022-12-18T02:59:04;7.67;;;4.83;;
11927;SDS011;6023;47.070;15.126;2022-12-18T03:01:36;8.83;;;5.43;;
11927;SDS011;6023;47.070;15.126;2022-12-18T03:04:10;9.30;;;5.40;;
11927;SDS011;6023;47.070;15.126;2022-12-18T03:06:43;9.00;;;5.03;;
11927;SDS011;6023;47.070;15.126;2022-12-18T03:09:16;7.47;;;4.70;;
11927;SDS011;6023;47.070;15.126;2022-12-18T03:11:53;8.33;;;4.90;;
11927;SDS011;6023;47.070;15.126;2022-12-18T03:14:42;8.77;;;5.90;;
11927;SDS011;6023;47.070;15.126;2022-12-18T03:17:13;8.77;;;5.10;;
11927;SDS011;6023;47.070;15.126;2022-12-18T03:19:45;8.03;;;5.00;;
11927;SDS011;6023;47.070;15.126;2022-12-18T03:22:14;9.17;;;5.23;;
11927;SDS011;6023;47.070;15.126;2022-12-18T03:24:44;8.10;;;4.90;;
11927;SDS011;6023;47.070;15.126;2022-12-18T03:27:16;8.60;;;4.90;;
11927;SDS011;6023;47.070;15.126;2022-12-18T03:29:47;7.53;;;4.80;;
11927;SDS011;6023;47.070;15.126;2022-12-18T03:32:18;8.80;;;4.70;;
11927;SDS011;6023;47.070;15.126;2022-12-18T03:34:49;7.87;;;4.90;;
11927;SDS011;6023;47.070;15.126;2022-12-18T03:37:19;7.73;;;4.37;;
11927;SDS011;6023;47.070;15.126;2022-12-18T03:39:47;9.10;;;4.80;;
11927;SDS011;6023;47.070;15.126;2022-12-18T03:42:20;6.97;;;4.10;;
11927;SDS011;6023;47.070;15.126;2022-12-18T03:44:54;7.23;;;4.33;;
11927;SDS011;6023;47.070;15.126;2022-12-18T03:47:26;7.27;;;4.40;;
11927;SDS011;6023;47.070;15.126;2022-12-18T03:49:56;5.13;;;4.07;;
11927;SDS011;6023;47.070;15.126;2022-12-18T03:52:27;6.87;;;4.17;;
11927;SDS011;6023;47.070;15.126;2022-12-18T03:54:58;5.50;;;3.90;;
11927;SDS011;6023;47.070;15.126;2022-12-18T03:57:30;6.07;;;4.30;;
11927;SDS011;6023;47.070;15.126;2022-12-18T04:00:00;7.00;;;4.17;;
11927;SDS011;6023;47.070;15.126;2022-12-18T04:02:32;6.63;;;4.10;;
11927;SDS011;6023;47.070;15.126;2022-12-18T04:05:03;6.80;;;4.57;;
11927;SDS011;6023;47.070;15.126;2022-12-18T04:07:33;6.37;;;4.20;;
11927;SDS011;6023;47.070;15.126;2022-12-18T04:10:02;6.33;;;4.03;;
11927;SDS011;6023;47.070;15.126;2022-12-18T04:12:34;6.67;;;4.00;;
11927;SDS011;6023;47.070;15.126;2022-12-18T04:15:03;6.87;;;4.27;;
11927;SDS011;6023;47.070;15.126;2022-12-18T04:17:32;7.10;;;4.13;;
11927;SDS011;6023;47.070;15.126;2022-12-18T04:20:01;5.97;;;3.80;;
11927;SDS011;6023;47.070;15.126;2022-12-18T04:22:29;6.13;;;4.33;;
11927;SDS011;6023;47.070;15.126;2022-12-18T04:24:58;7.43;;;4.47;;
11927;SDS011;6023;47.070;15.126;2022-12-18T04:27:27;7.10;;;4.40;;
11927;SDS011;6023;47.070;15.126;2022-12-18T04:29:57;6.63;;;4.40;;
11927;SDS011;6023;47.070;15.126;2022-12-18T04:32:25;5.93;;;4.10;;
11927;SDS011;6023;47.070;15.126;2022-12-18T04:34:54;6.90;;;4.13;;
11927;SDS011;6023;47.070;15.126;2022-12-18T04:37:22;6.77;;;4.10;;
11927;SDS011;6023;47.070;15.126;2022-12-18T04:39:51;5.60;;;4.20;;
11927;SDS011;6023;47.070;15.126;2022-12-18T04:42:19;6.80;;;4.40;;
11927;SDS011;6023;47.070;15.126;2022-12-18T04:44:48;6.27;;;4.00;;
11927;SDS011;6023;47.070;15.126;2022-12-18T04:47:18;5.40;;;3.30;;
11927;SDS011;6023;47.070;15.126;2022-12-18T04:49:46;4.83;;;3.40;;
11927;SDS011;6023;47.070;15.126;2022-12-18T04:52:15;5.30;;;3.70;;
11927;SDS011;6023;47.070;15.126;2022-12-18T04:54:43;5.87;;;4.00;;
11927;SDS011;6023;47.070;15.126;2022-12-18T04:57:12;7.37;;;4.60;;
11927;SDS011;6023;47.070;15.126;2022-12-18T04:59:41;7.53;;;4.93;;
11927;SDS011;6023;47.070;15.126;2022-12-18T05:02:09;8.03;;;5.80;;
11927;SDS011;6023;47.070;15.126;2022-12-18T05:04:40;7.33;;;5.30;;
11927;SDS011;6023;47.070;15.126;2022-12-18T05:07:08;7.20;;;4.83;;
11927;SDS011;6023;47.070;15.126;2022-12-18T05:09:37;7.40;;;4.93;;
11927;SDS011;6023;47.070;15.126;2022-12-18T05:12:05;6.33;;;4.70;;
11927;SDS011;6023;47.070;15.126;2022-12-18T05:14:34;6.40;;;4.73;;
11927;SDS011;6023;47.070;15.126;2022-12-18T05:17:03;6.73;;;4.37;;
11927;SDS011;6023;47.070;15.126;2022-12-18T05:19:31;7.17;;;4.33;;
11927;SDS011;6023;47.070;15.126;2022-12-18T05:22:01;5.57;;;4.10;;
11927;SDS011;6023;47.070;15.126;2022-12-18T05:24:29;6.57;;;4.40;;
11927;SDS011;6023;47.070;15.126;2022-12-18T05:26:58;6.73;;;4.10;;
11927;SDS011;6023;47.070;15.126;2022-12-18T05:29:27;4.90;;;3.77;;
11927;SDS011;6023;47.070;15.126;2022-12-18T05:31:56;6.57;;;4.53;;
11927;SDS011;6023;47.070;15.126;2022-12-18T05:34:24;6.20;;;4.23;;
11927;SDS011;6023;47.070;15.126;2022-12-18T05:36:53;5.77;;;4.13;;
11927;SDS011;6023;47.070;15.126;2022-12-18T05:39:22;5.83;;;4.50;;
11927;SDS011;6023;47.070;15.126;2022-12-18T05:41:51;6.70;;;4.63;;
11927;SDS011;6023;47.070;15.126;2022-12-18T05:44:19;6.57;;;4.63;;
11927;SDS011;6023;47.070;15.126;2022-12-18T05:46:48;7.53;;;5.10;;
11927;SDS011;6023;47.070;15.126;2022-12-18T05:49:17;6.40;;;4.80;;
11927;SDS011;6023;47.070;15.126;2022-12-18T05:51:45;7.33;;;5.07;;
11927;SDS011;6023;47.070;15.126;2022-12-18T05:54:14;7.97;;;5.47;;
11927;SDS011;6023;47.070;15.126;2022-12-18T05:56:44;5.83;;;4.67;;
11927;SDS011;6023;47.070;15.126;2022-12-18T05:59:14;6.77;;;5.00;;
11927;SDS011;6023;47.070;15.126;2022-12-18T06:01:43;6.87;;;4.83;;
11927;SDS011;6023;47.070;15.126;2022-12-18T06:04:11;7.87;;;5.17;;
11927;SDS011;6023;47.070;15.126;2022-12-18T06:06:40;7.80;;;5.30;;
11927;SDS011;6023;47.070;15.126;2022-12-18T06:09:09;7.57;;;5.30;;
11927;SDS011;6023;47.070;15.126;2022-12-18T06:11:38;8.53;;;5.10;;
11927;SDS011;6023;47.070;15.126;2022-12-18T06:14:09;8.43;;;5.97;;
11927;SDS011;6023;47.070;15.126;2022-12-18T06:16:38;17.87;;;12.27;;
11927;SDS011;6023;47.070;15.126;2022-12-18T06:19:06;13.10;;;9.30;;
11927;SDS011;6023;47.070;15.126;2022-12-18T06:21:35;9.70;;;6.83;;
11927;SDS011;6023;47.070;15.126;2022-12-18T06:24:04;8.73;;;5.83;;
11927;SDS011;6023;47.070;15.126;2022-12-18T06:26:33;9.63;;;6.43;;
11927;SDS011;6023;47.070;15.126;2022-12-18T06:29:01;9.77;;;7.40;;
11927;SDS011;6023;47.070;15.126;2022-12-18T06:31:31;8.67;;;5.97;;
11927;SDS011;6023;47.070;15.126;2022-12-18T06:34:01;6.27;;;5.03;;
11927;SDS011;6023;47.070;15.126;2022-12-18T06:36:31;6.10;;;4.50;;
11927;SDS011;6023;47.070;15.126;2022-12-18T06:38:59;7.00;;;4.60;;
11927;SDS011;6023;47.070;15.126;2022-12-18T06:41:28;6.73;;;4.80;;
11927;SDS011;6023;47.070;15.126;2022-12-18T06:43:57;7.07;;;5.17;;
11927;SDS011;6023;47.070;15.126;2022-12-18T06:46:26;6.70;;;4.63;;
11927;SDS011;6023;47.070;15.126;2022-12-18T06:48:56;6.83;;;4.77;;
11927;SDS011;6023;47.070;15.126;2022-12-18T06:51:25;6.87;;;4.47;;
11927;SDS011;6023;47.070;15.126;2022-12-18T06:53:53;7.37;;;4.90;;
11927;SDS011;6023;47.070;15.126;2022-12-18T06:56:22;6.00;;;4.43;;
11927;SDS011;6023;47.070;15.126;2022-12-18T06:58:51;7.17;;;5.13;;
11927;SDS011;6023;47.070;15.126;2022-12-18T07:01:19;9.20;;;6.33;;
11927;SDS011;6023;47.070;15.126;2022-12-18T07:03:51;13.50;;;8.97;;
11927;SDS011;6023;47.070;15.126;2022-12-18T07:06:22;20.90;;;11.50;;
11927;SDS011;6023;47.070;15.126;2022-12-18T07:08:53;17.80;;;12.60;;
11927;SDS011;6023;47.070;15.126;2022-12-18T07:11:21;15.47;;;11.37;;
11927;SDS011;6023;47.070;15.126;2022-12-18T07:13:50;18.67;;;13.40;;
11927;SDS011;6023;47.070;15.126;2022-12-18T07:16:20;20.97;;;15.17;;
11927;SDS011;6023;47.070;15.126;2022-12-18T07:18:51;31.53;;;20.47;;
11927;SDS011;6023;47.070;15.126;2022-12-18T07:21:20;32.57;;;21.93;;
11927;SDS011;6023;47.070;15.126;2022-12-18T07:23:50;21.23;;;14.40;;
11927;SDS011;6023;47.070;15.126;2022-12-18T07:26:19;18.40;;;10.50;;
11927;SDS011;6023;47.070;15.126;2022-12-18T07:28:49;16.37;;;10.87;;
11927;SDS011;6023;47.070;15.126;2022-12-18T07:31:19;14.57;;;9.30;;
11927;SDS011;6023;47.070;15.126;2022-12-18T07:33:49;17.57;;;9.97;;
11927;SDS011;6023;47.070;15.126;2022-12-18T07:36:18;17.37;;;10.17;;
11927;SDS011;6023;47.070;15.126;2022-12-18T07:38:51;24.47;;;12.90;;
11927;SDS011;6023;47.070;15.126;2022-12-18T07:41:20;27.10;;;15.30;;
11927;SDS011;6023;47.070;15.126;2022-12-18T07:43:48;22.03;;;14.23;;
11927;SDS011;6023;47.070;15.126;2022-12-18T07:46:17;22.67;;;14.83;;
11927;SDS011;6023;47.070;15.126;2022-12-18T07:48:46;20.10;;;13.70;;
11927;SDS011;6023;47.070;15.126;2022-12-18T07:51:16;17.67;;;12.40;;
11927;SDS011;6023;47.070;15.126;2022-12-18T07:53:45;20.07;;;14.27;;
11927;SDS011;6023;47.070;15.126;2022-12-18T07:56:20;23.43;;;17.13;;
11927;SDS011;6023;47.070;15.126;2022-12-18T07:58:55;18.13;;;12.80;;
11927;SDS011;6023;47.070;15.126;2022-12-18T08:01:24;14.10;;;10.77;;
11927;SDS011;6023;47.070;15.126;2022-12-18T08:03:53;16.40;;;11.37;;
11927;SDS011;6023;47.070;15.126;2022-12-18T08:06:21;16.97;;;12.63;;
11927;SDS011;6023;47.070;15.126;2022-12-18T08:08:51;19.63;;;13.83;;
11927;SDS011;6023;47.070;15.126;2022-12-18T08:11:21;21.43;;;15.27;;
11927;SDS011;6023;47.070;15.126;2022-12-18T08:13:51;22.20;;;14.47;;
11927;SDS011;6023;47.070;15.126;2022-12-18T08:16:20;24.00;;;14.73;;
11927;SDS011;6023;47.070;15.126;2022-12-18T08:18:51;22.57;;;15.50;;
11927;SDS011;6023;47.070;15.126;2022-12-18T08:21:20;23.40;;;16.00;;
11927;SDS011;6023;47.070;15.126;2022-12-18T08:23:50;21.57;;;15.00;;
11927;SDS011;6023;47.070;15.126;2022-12-18T08:26:21;29.73;;;18.80;;
11927;SDS011;6023;47.070;15.126;2022-12-18T08:28:50;32.73;;;21.33;;
11927;SDS011;6023;47.070;15.126;2022-12-18T08:31:19;46.50;;;29.87;;
11927;SDS011;6023;47.070;15.126;2022-12-18T08:33:50;31.47;;;20.50;;
11927;SDS011;6023;47.070;15.126;2022-12-18T08:36:20;21.30;;;14.67;;
11927;SDS011;6023;47.070;15.126;2022-12-18T08:38:50;20.63;;;14.93;;
11927;SDS011;6023;47.070;15.126;2022-12-18T08:41:19;19.37;;;13.73;;
11927;SDS011;6023;47.070;15.126;2022-12-18T08:43:48;20.30;;;13.53;;
11927;SDS011;6023;47.070;15.126;2022-12-18T08:46:35;21.43;;;15.20;;
11927;SDS011;6023;47.070;15.126;2022-12-18T08:49:05;20.80;;;14.47;;
11927;SDS011;6023;47.070;15.126;2022-12-18T08:51:34;19.37;;;14.17;;
11927;SDS011;6023;47.070;15.126;2022-12-18T08:54:03;20.83;;;14.10;;
11927;SDS011;6023;47.070;15.126;2022-12-18T08:56:32;18.63;;;13.00;;
11927;SDS011;6023;47.070;15.126;2022-12-18T08:59:02;9.40;;;6.73;;
11927;SDS011;6023;47.070;15.126;2022-12-18T09:01:31;9.37;;;6.50;;
11927;SDS011;6023;47.070;15.126;2022-12-18T09:04:01;9.57;;;6.87;;
11927;SDS011;6023;47.070;15.126;2022-12-18T09:06:30;10.40;;;7.03;;
11927;SDS011;6023;47.070;15.126;2022-12-18T09:08:59;9.83;;;6.77;;
11927;SDS011;6023;47.070;15.126;2022-12-18T09:11:28;9.73;;;6.37;;
11927;SDS011;6023;47.070;15.126;2022-12-18T09:13:57;9.13;;;6.43;;
11927;SDS011;6023;47.070;15.126;2022-12-18T09:16:27;9.43;;;6.70;;
11927;SDS011;6023;47.070;15.126;2022-12-18T09:18:58;10.20;;;7.00;;
11927;SDS011;6023;47.070;15.126;2022-12-18T09:21:28;11.17;;;8.00;;
11927;SDS011;6023;47.070;15.126;2022-12-18T09:24:03;9.20;;;7.13;;
11927;SDS011;6023;47.070;15.126;2022-12-18T09:26:34;10.43;;;7.10;;
11927;SDS011;6023;47.070;15.126;2022-12-18T09:29:04;13.40;;;10.80;;
11927;SDS011;6023;47.070;15.126;2022-12-18T09:31:35;13.20;;;10.33;;
11927;SDS011;6023;47.070;15.126;2022-12-18T09:34:05;16.17;;;10.70;;
11927;SDS011;6023;47.070;15.126;2022-12-18T09:36:33;13.67;;;8.77;;
11927;SDS011;6023;47.070;15.126;2022-12-18T09:39:02;11.87;;;8.07;;
11927;SDS011;6023;47.070;15.126;2022-12-18T09:41:48;9.43;;;7.40;;
11927;SDS011;6023;47.070;15.126;2022-12-18T09:44:22;9.63;;;7.13;;
11927;SDS011;6023;47.070;15.126;2022-12-18T09:47:08;10.87;;;7.20;;
11927;SDS011;6023;47.070;15.126;2022-12-18T09:49:39;12.40;;;8.47;;
11927;SDS011;6023;47.070;15.126;2022-12-18T09:52:12;10.43;;;7.67;;
11927;SDS011;6023;47.070;15.126;2022-12-18T09:54:45;14.93;;;10.40;;
11927;SDS011;6023;47.070;15.126;2022-12-18T09:57:17;19.57;;;13.23;;
11927;SDS011;6023;47.070;15.126;2022-12-18T09:59:48;15.03;;;10.37;;
11927;SDS011;6023;47.070;15.126;2022-12-18T10:02:21;13.10;;;8.07;;
11927;SDS011;6023;47.070;15.126;2022-12-18T10:05:02;9.87;;;6.80;;
11927;SDS011;6023;47.070;15.126;2022-12-18T10:07:40;13.83;;;9.07;;
11927;SDS011;6023;47.070;15.126;2022-12-18T10:10:16;17.33;;;11.60;;
11927;SDS011;6023;47.070;15.126;2022-12-18T10:12:52;14.83;;;10.57;;
11927;SDS011;6023;47.070;15.126;2022-12-18T10:15:31;15.40;;;10.97;;
11927;SDS011;6023;47.070;15.126;2022-12-18T10:18:06;13.63;;;9.70;;
11927;SDS011;6023;47.070;15.126;2022-12-18T10:20:48;12.40;;;8.70;;
11927;SDS011;6023;47.070;15.126;2022-12-18T10:23:20;10.93;;;8.50;;
11927;SDS011;6023;47.070;15.126;2022-12-18T10:25:53;15.90;;;11.90;;
11927;SDS011;6023;47.070;15.126;2022-12-18T10:28:23;16.30;;;12.97;;
11927;SDS011;6023;47.070;15.126;2022-12-18T10:30:53;14.40;;;10.60;;
11927;SDS011;6023;47.070;15.126;2022-12-18T10:33:23;13.87;;;10.60;;
11927;SDS011;6023;47.070;15.126;2022-12-18T10:35:56;11.57;;;9.03;;
11927;SDS011;6023;47.070;15.126;2022-12-18T10:38:25;14.10;;;10.27;;
11927;SDS011;6023;47.070;15.126;2022-12-18T10:40:56;11.93;;;8.87;;
11927;SDS011;6023;47.070;15.126;2022-12-18T10:43:27;13.17;;;10.10;;
11927;SDS011;6023;47.070;15.126;2022-12-18T10:45:59;14.93;;;10.20;;
11927;SDS011;6023;47.070;15.126;2022-12-18T10:48:31;45.67;;;28.77;;
11927;SDS011;6023;47.070;15.126;2022-12-18T10:51:03;17.27;;;12.23;;
11927;SDS011;6023;47.070;15.126;2022-12-18T10:53:39;16.07;;;11.57;;
11927;SDS011;6023;47.070;15.126;2022-12-18T10:56:10;12.80;;;9.60;;
11927;SDS011;6023;47.070;15.126;2022-12-18T10:58:38;12.60;;;9.90;;
11927;SDS011;6023;47.070;15.126;2022-12-18T11:01:09;13.57;;;10.37;;
11927;SDS011;6023;47.070;15.126;2022-12-18T11:03:41;12.27;;;8.80;;
11927;SDS011;6023;47.070;15.126;2022-12-18T11:06:10;12.60;;;9.20;;
11927;SDS011;6023;47.070;15.126;2022-12-18T11:08:40;12.60;;;9.13;;
11927;SDS011;6023;47.070;15.126;2022-12-18T11:11:15;11.07;;;7.80;;
11927;SDS011;6023;47.070;15.126;2022-12-18T11:13:53;11.83;;;7.83;;
11927;SDS011;6023;47.070;15.126;2022-12-18T11:16:26;11.53;;;7.70;;
11927;SDS011;6023;47.070;15.126;2022-12-18T11:19:10;11.07;;;7.40;;
11927;SDS011;6023;47.070;15.126;2022-12-18T11:21:46;11.47;;;7.73;;
11927;SDS011;6023;47.070;15.126;2022-12-18T11:24:18;11.00;;;8.17;;
11927;SDS011;6023;47.070;15.126;2022-12-18T11:26:48;12.20;;;8.23;;
11927;SDS011;6023;47.070;15.126;2022-12-18T11:29:28;11.33;;;8.23;;
11927;SDS011;6023;47.070;15.126;2022-12-18T11:35:00;14.70;;;11.53;;
11927;SDS011;6023;47.070;15.126;2022-12-18T11:37:32;15.77;;;10.47;;
11927;SDS011;6023;47.070;15.126;2022-12-18T11:40:02;20.07;;;14.50;;
11927;SDS011;6023;47.070;15.126;2022-12-18T11:42:35;32.93;;;22.47;;
11927;SDS011;6023;47.070;15.126;2022-12-18T11:45:14;20.13;;;13.47;;
11927;SDS011;6023;47.070;15.126;2022-12-18T11:47:51;14.67;;;10.97;;
11927;SDS011;6023;47.070;15.126;2022-12-18T11:50:25;17.33;;;12.60;;
11927;SDS011;6023;47.070;15.126;2022-12-18T11:52:56;17.10;;;12.80;;
11927;SDS011;6023;47.070;15.126;2022-12-18T11:55:33;19.27;;;13.70;;
11927;SDS011;6023;47.070;15.126;2022-12-18T11:58:10;16.23;;;12.50;;
11927;SDS011;6023;47.070;15.126;2022-12-18T12:00:43;17.43;;;12.73;;
11927;SDS011;6023;47.070;15.126;2022-12-18T12:03:27;21.97;;;13.73;;
11927;SDS011;6023;47.070;15.126;2022-12-18T12:06:15;21.17;;;13.70;;
11927;SDS011;6023;47.070;15.126;2022-12-18T12:08:50;21.63;;;14.90;;
11927;SDS011;6023;47.070;15.126;2022-12-18T12:11:27;22.70;;;15.27;;
11927;SDS011;6023;47.070;15.126;2022-12-18T12:14:13;23.43;;;15.23;;
11927;SDS011;6023;47.070;15.126;2022-12-18T12:16:55;20.73;;;14.87;;
11927;SDS011;6023;47.070;15.126;2022-12-18T12:19:30;23.47;;;15.53;;
11927;SDS011;6023;47.070;15.126;2022-12-18T12:22:06;21.70;;;15.57;;
11927;SDS011;6023;47.070;15.126;2022-12-18T12:24:42;20.93;;;14.93;;
11927;SDS011;6023;47.070;15.126;2022-12-18T12:27:19;22.50;;;15.10;;
11927;SDS011;6023;47.070;15.126;2022-12-18T12:29:55;22.83;;;14.80;;
11927;SDS011;6023;47.070;15.126;2022-12-18T12:32:45;21.23;;;15.37;;
11927;SDS011;6023;47.070;15.126;2022-12-18T12:35:25;24.27;;;15.13;;
11927;SDS011;6023;47.070;15.126;2022-12-18T12:38:04;23.23;;;16.53;;
11927;SDS011;6023;47.070;15.126;2022-12-18T12:40:36;23.60;;;15.60;;
11927;SDS011;6023;47.070;15.126;2022-12-18T12:43:21;21.77;;;14.73;;
11927;SDS011;6023;47.070;15.126;2022-12-18T12:45:53;23.27;;;16.30;;
11927;SDS011;6023;47.070;15.126;2022-12-18T12:48:29;24.07;;;15.50;;
11927;SDS011;6023;47.070;15.126;2022-12-18T12:51:03;23.90;;;17.07;;
11927;SDS011;6023;47.070;15.126;2022-12-18T12:53:39;24.10;;;16.80;;
11927;SDS011;6023;47.070;15.126;2022-12-18T12:56:09;24.03;;;16.97;;
11927;SDS011;6023;47.070;15.126;2022-12-18T12:58:43;27.70;;;19.53;;
11927;SDS011;6023;47.070;15.126;2022-12-18T13:01:17;20.97;;;15.17;;
11927;SDS011;6023;47.070;15.126;2022-12-18T13:03:55;20.53;;;14.67;;
11927;SDS011;6023;47.070;15.126;2022-12-18T13:06:32;21.00;;;15.30;;
11927;SDS011;6023;47.070;15.126;2022-12-18T13:09:11;22.70;;;16.10;;
11927;SDS011;6023;47.070;15.126;2022-12-18T13:11:40;22.53;;;16.30;;
11927;SDS011;6023;47.070;15.126;2022-12-18T13:14:28;23.20;;;15.90;;
11927;SDS011;6023;47.070;15.126;2022-12-18T13:17:14;22.23;;;15.40;;
11927;SDS011;6023;47.070;15.126;2022-12-18T13:22:43;25.00;;;16.80;;
11927;SDS011;6023;47.070;15.126;2022-12-18T13:28:08;21.80;;;15.93;;
11927;SDS011;6023;47.070;15.126;2022-12-18T13:30:42;20.83;;;14.90;;
11927;SDS011;6023;47.070;15.126;2022-12-18T13:33:41;21.70;;;14.77;;
11927;SDS011;6023;47.070;15.126;2022-12-18T13:36:32;30.00;;;19.97;;
11927;SDS011;6023;47.070;15.126;2022-12-18T13:39:09;23.07;;;15.90;;
11927;SDS011;6023;47.070;15.126;2022-12-18T13:41:41;23.23;;;16.17;;
11927;SDS011;6023;47.070;15.126;2022-12-18T13:44:11;21.30;;;15.17;;
11927;SDS011;6023;47.070;15.126;2022-12-18T13:46:44;19.70;;;14.00;;
11927;SDS011;6023;47.070;15.126;2022-12-18T13:49:20;20.50;;;14.33;;
11927;SDS011;6023;47.070;15.126;2022-12-18T13:51:51;42.27;;;25.27;;
11927;SDS011;6023;47.070;15.126;2022-12-18T13:54:22;33.80;;;21.60;;
11927;SDS011;6023;47.070;15.126;2022-12-18T13:56:54;36.43;;;23.53;;
11927;SDS011;6023;47.070;15.126;2022-12-18T13:59:24;25.07;;;17.27;;
11927;SDS011;6023;47.070;15.126;2022-12-18T14:01:54;39.37;;;24.47;;
11927;SDS011;6023;47.070;15.126;2022-12-18T14:04:25;37.03;;;23.47;;
11927;SDS011;6023;47.070;15.126;2022-12-18T14:06:56;51.50;;;28.43;;
11927;SDS011;6023;47.070;15.126;2022-12-18T14:09:27;47.17;;;27.17;;
11927;SDS011;6023;47.070;15.126;2022-12-18T14:11:59;30.10;;;19.13;;
11927;SDS011;6023;47.070;15.126;2022-12-18T14:14:46;25.03;;;18.53;;
11927;SDS011;6023;47.070;15.126;2022-12-18T14:17:20;29.67;;;20.20;;
11927;SDS011;6023;47.070;15.126;2022-12-18T14:19:50;26.80;;;18.87;;
11927;SDS011;6023;47.070;15.126;2022-12-18T14:22:20;22.53;;;16.77;;
11927;SDS011;6023;47.070;15.126;2022-12-18T14:25:05;23.93;;;16.47;;
11927;SDS011;6023;47.070;15.126;2022-12-18T14:27:44;26.33;;;19.13;;
11927;SDS011;6023;47.070;15.126;2022-12-18T14:30:24;25.57;;;18.00;;
11927;SDS011;6023;47.070;15.126;2022-12-18T14:33:01;26.47;;;18.97;;
11927;SDS011;6023;47.070;15.126;2022-12-18T14:35:31;23.80;;;17.23;;
11927;SDS011;6023;47.070;15.126;2022-12-18T14:38:09;27.27;;;19.47;;
11927;SDS011;6023;47.070;15.126;2022-12-18T14:40:56;22.93;;;16.60;;
11927;SDS011;6023;47.070;15.126;2022-12-18T14:43:28;22.90;;;15.93;;
11927;SDS011;6023;47.070;15.126;2022-12-18T14:45:57;21.77;;;15.43;;
11927;SDS011;6023;47.070;15.126;2022-12-18T14:48:37;31.27;;;19.67;;
11927;SDS011;6023;47.070;15.126;2022-12-18T14:51:12;22.13;;;15.67;;
11927;SDS011;6023;47.070;15.126;2022-12-18T14:53:44;29.60;;;19.83;;
11927;SDS011;6023;47.070;15.126;2022-12-18T14:56:21;24.97;;;17.93;;
11927;SDS011;6023;47.070;15.126;2022-12-18T14:58:52;20.73;;;15.03;;
11927;SDS011;6023;47.070;15.126;2022-12-18T15:01:26;23.77;;;16.40;;
11927;SDS011;6023;47.070;15.126;2022-12-18T15:03:57;25.17;;;17.07;;
11927;SDS011;6023;47.070;15.126;2022-12-18T15:06:27;24.90;;;17.33;;
11927;SDS011;6023;47.070;15.126;2022-12-18T15:08:58;19.83;;;14.77;;
11927;SDS011;6023;47.070;15.126;2022-12-18T15:11:28;23.07;;;17.23;;